Time;durP1;ratioP1;P1;durP2;ratioP2;P2;SDS_P1;SDS_P2;PMS_P1;PMS_P2;Temp;Humidity;BMP_temperature;BMP_pressure;BME280_temperature;BME280_humidity;BME280_pressure;Samples;Min_cycle;Max_cycle;Signal;HPM_P1;HPM_P2
2022/10/06 00:00:43;;;;;;;10.70;5.40;;;;;;;11.79;66.29;100380.98;25095;1315;3057933;-74
2022/10/06 00:03:12;;;;;;;12.40;6.50;;;;;;;11.68;66.85;100377.30;25124;1315;3026008;-71
2022/10/06 00:05:42;;;;;;;11.50;6.60;;;;;;;11.65;66.81;100375.92;25140;1315;3051776;-69
2022/10/06 00:08:12;;;;;;;13.10;7.10;;;;;;;11.62;66.82;100378.55;25041;1318;3027464;-71
2022/10/06 00:10:42;;;;;;;15.40;7.60;;;;;;;11.56;66.95;100380.92;25130;1315;3028928;-70
2022/10/06 00:13:11;;;;;;;14.90;7.20;;;;;;;11.55;66.95;100370.95;25143;1315;3026929;-72
2022/10/06 00:15:41;;;;;;;10.80;6.00;;;;;;;11.43;67.52;100368.95;25141;1315;3056767;-70
2022/10/06 00:18:10;;;;;;;10.60;6.90;;;;;;;11.50;67.10;100377.05;25096;1315;3026876;-75
2022/10/06 00:20:42;;;;;;;11.00;6.50;;;;;;;11.41;67.59;100374.45;25119;1315;3054840;-69
2022/10/06 00:23:11;;;;;;;13.20;6.70;;;;;;;11.37;67.90;100381.70;25090;1318;3027884;-68
2022/10/06 00:25:41;;;;;;;14.10;7.10;;;;;;;11.39;67.47;100386.53;25053;1315;3026604;-69
2022/10/06 00:28:10;;;;;;;11.50;7.00;;;;;;;11.36;67.85;100389.27;25086;1315;3055076;-71
2022/10/06 00:30:39;;;;;;;16.70;6.40;;;;;;;11.36;67.76;100388.21;25067;1318;3026769;-74
2022/10/06 00:33:13;;;;;;;12.40;6.90;;;;;;;11.34;67.94;100392.21;25128;1315;3052956;-71
2022/10/06 00:35:43;;;;;;;13.10;6.80;;;;;;;11.26;68.31;100391.49;25137;1315;3051834;-69
2022/10/06 00:38:14;;;;;;;12.10;7.20;;;;;;;11.25;68.56;100389.13;25103;1316;3026654;-69
2022/10/06 00:40:45;;;;;;;14.50;7.80;;;;;;;11.28;68.43;100383.91;25106;1318;3027133;-68
2022/10/06 00:43:42;;;;;;;15.00;7.20;;;;;;;11.25;68.64;100384.73;25049;1318;3026430;-74
2022/10/06 00:46:17;;;;;;;15.30;7.20;;;;;;;11.32;68.35;100383.90;25148;1315;3054609;-67
2022/10/06 00:48:51;;;;;;;14.40;8.00;;;;;;;11.23;68.97;100377.80;25101;1316;3071662;-73
2022/10/06 00:51:21;;;;;;;15.00;5.20;;;;;;;11.22;69.32;100369.59;25137;1315;3049326;-65
2022/10/06 00:53:50;;;;;;;21.40;6.90;;;;;;;12.02;67.87;100365.42;25052;1316;3028395;-67
2022/10/06 00:56:20;;;;;;;16.10;6.60;;;;;;;12.56;65.43;100361.00;25093;1315;3027449;-71
2022/10/06 00:58:49;;;;;;;12.40;6.50;;;;;;;12.68;64.95;100351.36;25063;1318;3026219;-66
2022/10/06 01:01:18;;;;;;;14.60;5.80;;;;;;;12.45;65.32;100355.28;25108;1315;3054443;-68
2022/10/06 01:03:54;;;;;;;19.10;6.40;;;;;;;12.25;65.75;100351.27;25091;1316;3026271;-74
2022/10/06 01:06:22;;;;;;;11.50;5.40;;;;;;;12.02;66.34;100345.45;25095;1318;3058430;-71
2022/10/06 01:08:52;;;;;;;12.70;6.20;;;;;;;11.86;66.70;100346.08;25101;1315;3026828;-68
2022/10/06 01:11:22;;;;;;;11.10;6.10;;;;;;;11.79;66.66;100344.13;25079;1318;3055179;-70
2022/10/06 01:13:51;;;;;;;13.60;6.00;;;;;;;11.61;67.41;100346.10;25065;1316;3028547;-71
2022/10/06 01:16:23;;;;;;;7.20;4.70;;;;;;;11.59;67.08;100342.20;25128;1315;3055102;-70
2022/10/06 01:18:53;;;;;;;11.10;5.00;;;;;;;11.48;67.49;100343.74;25118;1315;3026535;-70
2022/10/06 01:21:42;;;;;;;11.20;4.70;;;;;;;11.25;68.72;100343.14;25092;1316;3026331;-73
2022/10/06 01:24:11;;;;;;;8.40;4.70;;;;;;;11.14;69.21;100349.86;25110;1316;3052931;-70
2022/10/06 01:26:41;;;;;;;10.10;5.00;;;;;;;11.09;69.12;100348.13;25086;1315;3026622;-68
2022/10/06 01:29:10;;;;;;;6.70;3.70;;;;;;;11.00;69.63;100350.15;25044;1319;3055241;-66
2022/10/06 01:31:40;;;;;;;6.30;4.00;;;;;;;10.93;69.80;100355.92;25116;1318;3026715;-70
2022/10/06 01:34:10;;;;;;;7.00;2.80;;;;;;;10.95;70.03;100359.54;25111;1318;3026444;-69
2022/10/06 01:36:40;;;;;;;6.40;2.60;;;;;;;11.58;69.60;100354.50;25099;1315;3027509;-69
2022/10/06 01:39:10;;;;;;;6.40;3.40;;;;;;;12.37;67.33;100347.42;25132;1315;3029358;-71
2022/10/06 01:41:40;;;;;;;6.40;3.20;;;;;;;12.38;66.43;100343.70;25209;1316;3025901;-72
2022/10/06 01:44:09;;;;;;;6.80;3.70;;;;;;;12.14;66.48;100342.16;25046;1317;3026836;-71
2022/10/06 01:46:39;;;;;;;6.90;3.80;;;;;;;11.94;66.73;100336.17;25093;1315;3070970;-74
2022/10/06 01:49:08;;;;;;;7.30;3.30;;;;;;;11.78;67.03;100330.66;25091;1315;3026531;-71
2022/10/06 01:51:38;;;;;;;5.20;3.40;;;;;;;11.52;67.61;100329.88;25069;1318;3053458;-71
2022/10/06 01:54:07;;;;;;;5.90;3.80;;;;;;;11.48;67.59;100329.06;25089;1316;3026809;-67
2022/10/06 01:56:41;;;;;;;6.20;3.00;;;;;;;11.28;68.47;100336.39;25107;1316;3051995;-71
2022/10/06 01:59:10;;;;;;;7.10;4.20;;;;;;;11.14;68.84;100337.38;25097;1315;3026780;-73
2022/10/06 02:01:39;;;;;;;9.10;3.60;;;;;;;11.04;69.22;100341.88;25058;1315;3026571;-73
2022/10/06 02:04:08;;;;;;;6.80;3.30;;;;;;;10.90;69.90;100343.27;25126;1315;3052012;-72
2022/10/06 02:06:38;;;;;;;4.00;2.30;;;;;;;10.79;70.99;100350.28;25101;1316;3026540;-70
2022/10/06 02:09:07;;;;;;;5.10;2.60;;;;;;;11.40;70.17;100344.73;25115;1316;3026783;-70
2022/10/06 02:11:37;;;;;;;8.10;3.20;;;;;;;12.15;68.19;100345.79;24392;1318;4310328;-70
2022/10/06 02:14:06;;;;;;;5.20;2.90;;;;;;;12.12;67.17;100348.64;25119;1316;3026827;-67
2022/10/06 02:16:35;;;;;;;6.10;3.20;;;;;;;11.94;67.22;100349.36;25076;1318;3027045;-69
2022/10/06 02:19:05;;;;;;;5.90;3.70;;;;;;;11.65;68.03;100350.84;25072;1316;3051240;-73
2022/10/06 02:21:34;;;;;;;10.60;3.40;;;;;;;11.55;67.96;100345.17;25094;1318;3027064;-70
2022/10/06 02:24:04;;;;;;;7.20;3.40;;;;;;;11.45;68.00;100344.09;25076;1316;3026785;-70
2022/10/06 02:26:33;;;;;;;6.30;3.20;;;;;;;11.25;68.65;100349.12;25081;1316;3026281;-72
2022/10/06 02:29:02;;;;;;;5.90;3.70;;;;;;;11.11;69.16;100354.70;25062;1318;3054486;-70
2022/10/06 02:31:31;;;;;;;6.50;3.40;;;;;;;10.98;69.70;100359.01;25090;1316;3026932;-70
2022/10/06 02:34:01;;;;;;;7.60;3.50;;;;;;;10.81;70.48;100359.50;25072;1319;3048749;-69
2022/10/06 02:36:31;;;;;;;5.90;3.10;;;;;;;10.82;70.26;100365.23;25076;1318;3028501;-71
2022/10/06 02:39:00;;;;;;;3.20;2.10;;;;;;;10.81;70.62;100361.08;25056;1318;3026539;-70
2022/10/06 02:41:30;;;;;;;4.60;2.30;;;;;;;11.41;70.49;100361.29;25088;1315;3026505;-70
2022/10/06 02:43:59;;;;;;;6.60;2.90;;;;;;;12.18;68.21;100366.73;25007;1318;3026500;-71
2022/10/06 02:46:30;;;;;;;5.40;3.00;;;;;;;12.08;67.50;100363.95;25092;1316;3028940;-71
2022/10/06 02:48:59;;;;;;;4.50;2.70;;;;;;;11.85;67.65;100371.77;25125;1315;3028851;-71
2022/10/06 02:51:31;;;;;;;5.50;3.00;;;;;;;11.56;68.54;100378.83;25103;1315;3027501;-70
2022/10/06 02:54:01;;;;;;;6.10;3.20;;;;;;;11.29;69.24;100383.15;25151;1316;3027081;-70
2022/10/06 02:56:30;;;;;;;7.30;2.90;;;;;;;11.24;69.07;100384.42;25162;1315;3026470;-70
2022/10/06 02:59:00;;;;;;;7.90;3.50;;;;;;;11.12;69.28;100382.71;25101;1315;3071046;-72
2022/10/06 03:01:32;;;;;;;6.70;3.60;;;;;;;10.88;70.66;100383.68;25112;1316;3026981;-70
2022/10/06 03:04:04;;;;;;;4.40;3.20;;;;;;;10.78;70.81;100383.44;25125;1316;3027732;-74
2022/10/06 03:06:33;;;;;;;5.70;3.30;;;;;;;10.75;70.71;100384.83;25128;1316;3038928;-73
2022/10/06 03:09:09;;;;;;;2.90;2.00;;;;;;;10.73;71.16;100383.84;25114;1315;3051768;-71
2022/10/06 03:11:41;;;;;;;4.60;2.10;;;;;;;11.55;70.37;100382.55;25092;1315;3026666;-70
2022/10/06 03:14:11;;;;;;;4.90;2.90;;;;;;;12.05;68.79;100376.49;25140;1315;3028234;-68
2022/10/06 03:16:41;;;;;;;4.60;3.00;;;;;;;12.16;67.39;100382.13;25125;1316;3027323;-70
2022/10/06 03:19:15;;;;;;;5.90;3.70;;;;;;;11.83;67.91;100380.80;25083;1318;3052012;-70
2022/10/06 03:21:46;;;;;;;7.00;3.80;;;;;;;11.29;69.41;100387.50;25030;1319;3026798;-69
2022/10/06 03:24:15;;;;;;;6.00;2.90;;;;;;;11.10;69.86;100391.77;25124;1316;3027100;-68
2022/10/06 03:26:46;;;;;;;8.20;2.90;;;;;;;10.92;70.56;100390.50;25095;1316;3026845;-69
2022/10/06 03:29:16;;;;;;;5.40;3.70;;;;;;;10.84;70.50;100394.03;25074;1316;3028969;-69
2022/10/06 03:31:48;;;;;;;7.00;3.20;;;;;;;10.58;71.91;100397.19;25035;1315;3026547;-68
2022/10/06 03:34:17;;;;;;;6.20;3.60;;;;;;;10.49;72.08;100394.45;25004;1318;3026554;-71
2022/10/06 03:36:46;;;;;;;4.70;2.60;;;;;;;10.50;72.36;100396.30;25049;1318;3026814;-70
2022/10/06 03:39:16;;;;;;;6.00;3.00;;;;;;;11.09;71.85;100395.66;25140;1315;3053558;-70
2022/10/06 03:41:45;;;;;;;6.40;3.20;;;;;;;11.72;69.02;100391.71;25074;1318;3027380;-71
2022/10/06 03:44:16;;;;;;;5.40;3.10;;;;;;;11.75;68.63;100391.39;25090;1316;3026881;-66
2022/10/06 03:46:46;;;;;;;8.90;3.50;;;;;;;11.56;68.82;100394.61;25033;1315;3027155;-66
2022/10/06 03:49:16;;;;;;;5.30;2.90;;;;;;;11.24;69.48;100400.55;25104;1316;3026439;-70
2022/10/06 03:51:46;;;;;;;6.90;3.20;;;;;;;11.05;69.96;100402.20;25096;1315;3028295;-66
2022/10/06 03:54:20;;;;;;;6.90;3.70;;;;;;;10.90;70.22;100399.89;25103;1316;3052637;-70
2022/10/06 03:56:50;;;;;;;4.10;2.70;;;;;;;10.68;71.16;100398.65;25105;1315;3026640;-67
2022/10/06 03:59:19;;;;;;;6.90;3.00;;;;;;;10.57;71.54;100397.38;25111;1315;3026477;-69
2022/10/06 04:01:48;;;;;;;6.60;3.00;;;;;;;10.49;71.62;100400.39;25054;1318;3049342;-67
2022/10/06 04:04:22;;;;;;;4.00;2.00;;;;;;;10.48;72.31;100400.98;25106;1315;3052169;-70
2022/10/06 04:06:55;;;;;;;3.80;1.90;;;;;;;11.06;71.69;100405.11;25134;1315;3028117;-71
2022/10/06 04:09:24;;;;;;;4.80;2.10;;;;;;;11.84;69.14;100404.09;25052;1319;3026292;-71
2022/10/06 04:11:53;;;;;;;4.20;2.50;;;;;;;11.73;68.53;100405.33;25093;1315;3026573;-73
2022/10/06 04:14:22;;;;;;;4.70;2.70;;;;;;;11.54;68.96;100404.67;25074;1318;3027454;-72
2022/10/06 04:16:52;;;;;;;4.50;2.60;;;;;;;11.43;69.08;100405.95;25078;1316;3070864;-68
2022/10/06 04:19:29;;;;;;;6.60;2.70;;;;;;;11.21;69.46;100404.58;25015;1319;3049741;-68
2022/10/06 04:22:00;;;;;;;3.60;2.60;;;;;;;11.07;69.63;100406.98;25089;1316;3027026;-71
2022/10/06 04:24:29;;;;;;;5.50;2.90;;;;;;;10.89;70.34;100408.73;25121;1316;3026594;-72
2022/10/06 04:27:26;;;;;;;7.00;2.90;;;;;;;10.71;71.06;100408.14;25083;1316;3051579;-70
2022/10/06 04:30:11;;;;;;;5.20;2.90;;;;;;;10.58;71.86;100407.01;25098;1316;3053074;-74
2022/10/06 04:32:40;;;;;;;5.20;2.00;;;;;;;10.50;72.50;100402.62;25100;1319;3026353;-69
2022/10/06 04:35:10;;;;;;;3.00;1.60;;;;;;;11.26;71.03;100403.42;25060;1318;3027419;-69
2022/10/06 04:37:40;;;;;;;3.70;2.30;;;;;;;11.75;69.23;100396.85;25101;1318;3053971;-72
2022/10/06 04:40:09;;;;;;;5.40;2.70;;;;;;;11.85;68.55;100390.16;25123;1315;3026498;-71
2022/10/06 04:42:41;;;;;;;4.60;2.80;;;;;;;11.59;68.56;100389.52;25135;1316;3047723;-72
2022/10/06 04:45:13;;;;;;;9.60;3.00;;;;;;;11.43;69.11;100389.31;25107;1317;3026133;-72
2022/10/06 04:47:47;;;;;;;6.80;2.70;;;;;;;11.31;69.11;100389.02;25138;1316;3027467;-70
2022/10/06 04:50:17;;;;;;;8.90;2.60;;;;;;;11.06;69.86;100388.63;25072;1315;3026761;-71
2022/10/06 04:53:05;;;;;;;5.10;2.90;;;;;;;10.98;70.26;100385.33;25053;1318;3049723;-72
2022/10/06 04:55:34;;;;;;;5.40;2.70;;;;;;;10.86;70.81;100383.59;25089;1318;3026517;-68
2022/10/06 04:58:04;;;;;;;7.20;2.80;;;;;;;10.85;70.88;100381.73;25132;1316;3056354;-67
2022/10/06 05:00:33;;;;;;;6.00;2.20;;;;;;;10.90;70.88;100378.30;25088;1316;3026430;-67
2022/10/06 05:03:03;;;;;;;5.60;2.30;;;;;;;11.50;70.35;100378.73;25094;1315;3026143;-70
2022/10/06 05:05:32;;;;;;;6.10;2.00;;;;;;;11.88;68.41;100375.98;25072;1316;3055419;-68
2022/10/06 05:08:02;;;;;;;4.90;2.70;;;;;;;12.20;67.69;100381.02;25069;1315;3027355;-71
2022/10/06 05:10:31;;;;;;;4.10;2.10;;;;;;;11.95;67.74;100378.98;25105;1316;3028844;-71
2022/10/06 05:13:02;;;;;;;4.50;2.40;;;;;;;11.76;68.05;100384.66;25125;1316;3026397;-76
2022/10/06 05:15:35;;;;;;;5.60;3.30;;;;;;;11.72;67.98;100383.80;25120;1315;3052956;-72
2022/10/06 05:18:04;;;;;;;3.90;2.60;;;;;;;11.43;69.27;100384.55;25099;1319;3027626;-75
2022/10/06 05:20:35;;;;;;;5.40;3.20;;;;;;;11.39;69.23;100381.95;25165;1315;3059116;-68
2022/10/06 05:23:05;;;;;;;4.90;2.70;;;;;;;11.24;69.87;100380.56;25126;1316;3026486;-73
2022/10/06 05:25:35;;;;;;;3.40;2.50;;;;;;;11.31;69.27;100380.21;25175;1318;3052548;-72
2022/10/06 05:28:04;;;;;;;6.30;2.90;;;;;;;11.25;69.83;100378.59;25134;1318;3028876;-71
2022/10/06 05:30:35;;;;;;;5.80;2.70;;;;;;;11.24;69.80;100383.89;25100;1316;3054819;-73
2022/10/06 05:33:06;;;;;;;3.50;2.00;;;;;;;11.25;70.22;100382.42;25146;1316;3026397;-70
2022/10/06 05:35:36;;;;;;;6.50;2.10;;;;;;;12.07;69.02;100383.45;25130;1315;3050262;-73
2022/10/06 05:38:10;;;;;;;3.80;2.10;;;;;;;12.64;67.01;100386.41;25077;1319;3027702;-70
2022/10/06 05:40:40;;;;;;;4.80;2.40;;;;;;;12.73;65.68;100393.33;25083;1316;3028502;-69
2022/10/06 05:43:09;;;;;;;4.50;2.50;;;;;;;12.67;65.49;100397.66;25155;1316;3026807;-73
2022/10/06 05:45:38;;;;;;;4.80;2.10;;;;;;;12.39;65.97;100400.23;25120;1316;3026495;-72
2022/10/06 05:48:07;;;;;;;3.90;2.50;;;;;;;12.43;65.70;100403.70;25169;1316;3054873;-75
2022/10/06 05:50:36;;;;;;;6.40;3.60;;;;;;;12.14;66.59;100402.75;25191;1316;3026666;-71
2022/10/06 05:53:05;;;;;;;5.40;2.60;;;;;;;12.08;66.75;100409.38;25098;1315;3028194;-68
2022/10/06 05:55:35;;;;;;;6.10;2.70;;;;;;;12.05;66.88;100412.51;25094;1315;3055373;-72
2022/10/06 05:58:05;;;;;;;5.70;3.10;;;;;;;11.97;67.41;100411.14;25165;1316;3026527;-72
2022/10/06 06:00:34;;;;;;;4.70;3.10;;;;;;;11.96;67.78;100407.69;25101;1319;3027049;-69
2022/10/06 06:03:03;;;;;;;4.90;2.60;;;;;;;12.01;67.27;100406.08;25149;1316;3051701;-71
2022/10/06 06:05:33;;;;;;;6.20;3.10;;;;;;;12.08;67.14;100408.34;25159;1316;3028866;-72
2022/10/06 06:08:02;;;;;;;4.50;3.00;;;;;;;12.07;67.25;100408.23;25077;1316;3026176;-71
2022/10/06 06:10:31;;;;;;;4.90;2.90;;;;;;;12.05;67.35;100406.71;25085;1316;3026545;-64
2022/10/06 06:13:01;;;;;;;4.60;2.90;;;;;;;12.14;67.08;100405.92;25131;1315;3058468;-71
2022/10/06 06:15:59;;;;;;;4.20;2.80;;;;;;;12.22;66.83;100410.26;25128;1315;3052889;-71
2022/10/06 06:18:34;;;;;;;8.00;3.20;;;;;;;12.27;66.68;100410.70;25087;1315;3052772;-72
2022/10/06 06:21:05;;;;;;;3.70;2.20;;;;;;;12.29;66.69;100410.26;25109;1315;3052601;-72
2022/10/06 06:23:40;;;;;;;6.20;2.90;;;;;;;12.36;65.92;100410.94;25177;1315;3026264;-69
2022/10/06 06:26:11;;;;;;;4.50;2.50;;;;;;;12.43;66.76;100405.64;25154;1315;3050739;-72
2022/10/06 06:28:45;;;;;;;4.20;2.70;;;;;;;12.46;66.34;100406.34;25125;1316;3052102;-75
2022/10/06 06:31:19;;;;;;;5.50;2.10;;;;;;;12.66;66.34;100404.92;25179;1315;3026466;-72
2022/10/06 06:33:50;;;;;;;7.00;2.60;;;;;;;12.79;65.58;100406.00;25171;1315;3056463;-71
2022/10/06 06:36:21;;;;;;;3.80;2.20;;;;;;;12.83;65.68;100399.62;25129;1316;3026736;-73
2022/10/06 06:38:51;;;;;;;5.40;2.10;;;;;;;12.87;64.94;100403.95;25100;1318;3027338;-75
2022/10/06 06:41:24;;;;;;;4.80;2.30;;;;;;;12.95;65.03;100402.45;25186;1315;3028477;-76
2022/10/06 06:43:59;;;;;;;3.90;2.00;;;;;;;13.05;64.56;100408.97;25114;1315;3069930;-70
2022/10/06 06:46:33;;;;;;;3.30;1.90;;;;;;;13.12;64.79;100409.30;25132;1315;3051960;-72
2022/10/06 06:49:10;;;;;;;3.40;1.90;;;;;;;13.16;63.83;100412.39;25137;1318;3055227;-72
2022/10/06 06:51:43;;;;;;;2.40;1.90;;;;;;;13.22;63.98;100414.14;25101;1318;3055379;-71
2022/10/06 06:54:13;;;;;;;7.00;2.00;;;;;;;13.32;63.58;100415.19;25127;1316;3026855;-73
2022/10/06 06:56:47;;;;;;;5.10;2.30;;;;;;;13.34;63.68;100415.08;25215;1315;3026693;-70
2022/10/06 06:59:19;;;;;;;5.30;1.90;;;;;;;13.41;63.61;100412.05;25130;1315;3026836;-74
2022/10/06 07:01:51;;;;;;;3.30;2.00;;;;;;;13.54;63.69;100411.52;25165;1316;3027372;-76
2022/10/06 07:04:22;;;;;;;3.80;2.00;;;;;;;13.69;63.41;100415.36;25119;1315;3029642;-74
2022/10/06 07:06:57;;;;;;;4.40;2.20;;;;;;;13.77;63.18;100411.89;25187;1315;3026680;-70
2022/10/06 07:09:29;;;;;;;6.70;2.10;;;;;;;13.76;62.53;100414.44;25122;1315;3051685;-74
2022/10/06 07:12:10;;;;;;;2.80;1.90;;;;;;;13.69;63.49;100416.94;25078;1315;3071380;-75
2022/10/06 07:25:05;;;;;;;6.50;2.10;;;;;;;13.81;63.03;100412.90;25042;1318;3026862;-76
2022/10/06 07:26:02;;;;;;;7.20;1.80;;;;;;;14.09;62.65;100405.77;25033;1318;3052528;-70
2022/10/06 07:28:31;;;;;;;2.50;1.80;;;;;;;14.17;62.22;100412.37;25118;1315;3026375;-71
2022/10/06 07:31:00;;;;;;;2.60;1.40;;;;;;;14.23;61.51;100404.73;25052;1318;3027127;-75
2022/10/06 07:33:32;;;;;;;5.60;1.70;;;;;;;14.35;61.61;100401.90;25082;1315;3050212;-67
2022/10/06 07:36:03;;;;;;;4.00;1.80;;;;;;;14.46;61.25;100403.72;25180;1315;3027145;-71
2022/10/06 07:38:35;;;;;;;3.00;1.60;;;;;;;14.63;60.61;100407.98;25143;1315;3026969;-72
2022/10/06 07:41:04;;;;;;;3.40;1.40;;;;;;;14.69;60.06;100399.82;25059;1315;3028234;-70
2022/10/06 07:43:33;;;;;;;6.10;1.50;;;;;;;14.92;59.76;100392.05;25135;1315;3027077;-73
2022/10/06 07:46:03;;;;;;;2.60;1.20;;;;;;;15.12;59.17;100390.77;25180;1315;3026562;-72
2022/10/06 07:48:39;;;;;;;3.50;1.30;;;;;;;15.29;58.48;100389.48;25118;1316;3069903;-73
2022/10/06 07:51:13;;;;;;;2.50;1.30;;;;;;;15.35;57.76;100397.08;25154;1315;3026479;-74
2022/10/06 07:53:49;;;;;;;3.40;1.10;;;;;;;15.24;56.78;100399.52;25145;1315;3052197;-74
2022/10/06 07:56:32;;;;;;;5.80;1.40;;;;;;;15.34;56.54;100397.08;25111;1315;3055776;-73
2022/10/06 07:59:01;;;;;;;1.70;1.00;;;;;;;15.45;56.33;100394.08;25078;1319;3026679;-73
2022/10/06 08:01:30;;;;;;;2.70;1.30;;;;;;;15.61;55.85;100399.55;25124;1315;3026550;-72
2022/10/06 08:04:01;;;;;;;4.20;1.50;;;;;;;15.52;55.05;100400.73;25163;1315;3026535;-71
2022/10/06 08:06:30;;;;;;;4.90;1.40;;;;;;;15.59;54.60;100391.20;25107;1315;3055950;-73
2022/10/06 08:08:59;;;;;;;1.70;1.10;;;;;;;15.88;54.50;100386.15;25127;1315;3026892;-69
2022/10/06 08:11:30;;;;;;;2.10;1.10;;;;;;;15.95;53.60;100394.51;25136;1314;3054784;-72
2022/10/06 08:13:59;;;;;;;2.00;1.10;;;;;;;16.12;53.45;100386.13;25170;1315;3028614;-68
2022/10/06 08:16:29;;;;;;;4.30;1.50;;;;;;;16.22;53.52;100384.55;25090;1315;3026211;-73
2022/10/06 08:18:59;;;;;;;2.40;1.20;;;;;;;16.24;52.72;100389.86;25144;1315;3028633;-74
2022/10/06 08:21:30;;;;;;;4.20;1.20;;;;;;;16.27;52.86;100383.80;25135;1315;3026433;-68
2022/10/06 08:23:59;;;;;;;4.30;1.60;;;;;;;16.34;52.97;100390.20;25154;1315;3050355;-74
2022/10/06 08:26:33;;;;;;;3.20;1.30;;;;;;;16.36;52.59;100388.66;25151;1316;3026447;-72
2022/10/06 08:29:02;;;;;;;4.50;2.10;;;;;;;16.37;52.35;100389.80;25078;1315;3026330;-70
2022/10/06 08:31:31;;;;;;;3.90;1.60;;;;;;;16.44;52.46;100385.27;25143;1315;3027072;-72
2022/10/06 08:34:01;;;;;;;3.90;1.90;;;;;;;16.55;52.27;100382.59;25140;1315;3026626;-73
2022/10/06 08:36:30;;;;;;;5.80;2.10;;;;;;;16.50;52.01;100388.75;25119;1315;3029538;-74
2022/10/06 08:38:59;;;;;;;5.50;1.70;;;;;;;16.60;51.87;100376.71;25122;1315;3070770;-71
2022/10/06 08:41:35;;;;;;;5.30;1.60;;;;;;;16.77;51.53;100371.63;25134;1316;3027008;-72
2022/10/06 08:44:21;;;;;;;2.50;1.30;;;;;;;16.87;51.09;100374.80;25114;1316;3054020;-73
2022/10/06 08:46:59;;;;;;;7.40;1.70;;;;;;;16.73;51.02;100368.89;25094;1318;3054715;-72
2022/10/06 08:49:48;;;;;;;8.10;3.50;;;;;;;16.86;51.04;100365.52;25215;1315;3056090;-73
2022/10/06 08:52:45;;;;;;;3.10;1.50;;;;;;;16.93;50.66;100377.56;25127;1315;3050096;-73
2022/10/06 08:55:31;;;;;;;3.90;1.60;;;;;;;17.05;49.88;100382.52;25174;1314;3053625;-71
2022/10/06 08:58:12;;;;;;;3.90;1.50;;;;;;;16.92;50.84;100377.25;25084;1315;3054064;-73
2022/10/06 09:00:41;;;;;;;1.70;1.00;;;;;;;16.99;50.15;100383.52;25155;1315;3071740;-65
2022/10/06 09:03:23;;;;;;;3.30;1.30;;;;;;;16.97;49.65;100390.57;25107;1315;3027214;-68
2022/10/06 09:06:11;;;;;;;6.60;1.20;;;;;;;16.86;49.75;100370.94;25062;1316;3053811;-75
2022/10/06 09:08:47;;;;;;;5.10;1.70;;;;;;;16.78;50.35;100375.40;25133;1316;3069334;-69
2022/10/06 09:11:38;;;;;;;7.60;1.40;;;;;;;16.77;50.18;100372.34;25048;1318;3051724;-68
2022/10/06 09:14:19;;;;;;;2.20;1.20;;;;;;;16.78;50.64;100372.27;25154;1315;3053078;-71
2022/10/06 09:16:52;;;;;;;2.20;1.20;;;;;;;16.92;50.98;100366.86;25142;1315;3055777;-69
2022/10/06 09:19:25;;;;;;;6.40;2.40;;;;;;;17.04;50.44;100368.30;25105;1315;3055183;-67
2022/10/06 09:21:54;;;;;;;6.40;1.70;;;;;;;16.99;50.52;100369.02;25094;1315;3028991;-72
2022/10/06 09:24:33;;;;;;;7.20;1.40;;;;;;;17.08;50.12;100362.83;25148;1316;3027384;-69
2022/10/06 09:27:21;;;;;;;4.40;1.30;;;;;;;17.31;50.01;100360.13;25166;1315;3051427;-67
2022/10/06 09:29:52;;;;;;;2.20;1.00;;;;;;;17.41;49.34;100361.83;25150;1315;3069934;-69
2022/10/06 09:32:21;;;;;;;4.20;1.50;;;;;;;17.49;48.78;100363.20;25128;1315;3029617;-72
2022/10/06 09:34:55;;;;;;;6.50;1.50;;;;;;;17.44;48.55;100360.70;25130;1315;3026459;-69
2022/10/06 09:37:25;;;;;;;2.50;1.50;;;;;;;17.59;48.52;100355.52;25159;1313;3052240;-75
2022/10/06 09:39:54;;;;;;;1.90;0.90;;;;;;;17.80;48.64;100348.20;25141;1315;3026537;-68
2022/10/06 09:42:34;;;;;;;3.80;1.30;;;;;;;17.93;48.25;100354.89;25106;1315;3026758;-72
2022/10/06 09:45:06;;;;;;;2.70;1.30;;;;;;;17.93;47.84;100350.63;25117;1316;3053312;-72
2022/10/06 09:47:45;;;;;;;3.40;1.20;;;;;;;17.85;48.31;100348.55;25099;1315;3026997;-71
2022/10/06 09:50:21;;;;;;;2.50;1.10;;;;;;;17.84;47.82;100353.83;25049;1315;3071459;-70
2022/10/06 09:52:56;;;;;;;4.00;1.50;;;;;;;17.83;47.93;100353.33;25166;1316;3049066;-70
2022/10/06 09:55:27;;;;;;;2.50;1.00;;;;;;;17.86;47.75;100351.86;25128;1315;3055560;-69
2022/10/06 09:57:56;;;;;;;2.00;0.80;;;;;;;17.98;47.70;100349.03;25172;1315;3030328;-72
2022/10/06 10:00:34;;;;;;;3.10;1.20;;;;;;;18.00;47.42;100344.30;25090;1316;3026213;-73
2022/10/06 10:03:05;;;;;;;1.80;1.20;;;;;;;18.06;46.93;100344.84;25127;1315;3049899;-70
2022/10/06 10:05:39;;;;;;;2.40;1.30;;;;;;;18.12;46.57;100338.70;25106;1315;3028886;-70
2022/10/06 10:08:12;;;;;;;2.80;1.30;;;;;;;18.27;46.11;100347.29;25066;1318;3050574;-70
2022/10/06 10:10:43;;;;;;;2.10;1.00;;;;;;;18.13;45.42;100336.84;25147;1316;3068821;-69
2022/10/06 10:13:23;;;;;;;3.50;1.00;;;;;;;18.22;44.95;100346.49;25141;1315;3026303;-68
2022/10/06 10:16:00;;;;;;;3.50;1.10;;;;;;;18.22;45.17;100345.56;25039;1315;3054102;-71
2022/10/06 10:18:29;;;;;;;3.10;1.10;;;;;;;18.03;45.34;100339.23;25157;1315;3068081;-65
2022/10/06 10:21:07;;;;;;;2.20;0.80;;;;;;;18.13;45.44;100338.26;25135;1315;3026540;-69
2022/10/06 10:23:39;;;;;;;4.60;1.20;;;;;;;18.32;44.83;100338.21;25127;1315;3051581;-69
2022/10/06 10:26:26;;;;;;;2.10;1.20;;;;;;;18.55;45.12;100331.83;25114;1315;3029603;-72
2022/10/06 10:28:59;;;;;;;2.20;1.00;;;;;;;18.70;44.08;100333.95;25075;1315;3056975;-67
2022/10/06 10:31:50;;;;;;;3.70;1.20;;;;;;;18.80;43.03;100331.69;25099;1315;3026380;-69
2022/10/06 10:34:31;;;;;;;2.90;0.90;;;;;;;18.82;43.00;100329.61;25179;1315;3055110;-70
2022/10/06 10:37:13;;;;;;;2.80;1.00;;;;;;;18.76;43.29;100329.16;25174;1315;3053997;-67
2022/10/06 10:40:00;;;;;;;2.00;0.90;;;;;;;18.73;43.27;100333.30;25042;1315;3071620;-71
2022/10/06 10:43:14;;;;;;;5.50;1.30;;;;;;;18.64;42.68;100333.73;25153;1315;3048953;-71
2022/10/06 10:45:46;;;;;;;4.00;1.10;;;;;;;18.44;42.92;100326.59;25091;1315;3052022;-71
2022/10/06 10:48:20;;;;;;;2.20;1.10;;;;;;;18.55;42.62;100331.80;25152;1316;3027012;-68
2022/10/06 10:51:00;;;;;;;2.80;1.00;;;;;;;18.63;42.03;100322.65;25056;1315;3057112;-68
2022/10/06 10:53:39;;;;;;;2.60;1.20;;;;;;;18.74;42.34;100330.25;25132;1315;3048951;-69
2022/10/06 10:56:10;;;;;;;4.30;1.10;;;;;;;18.71;42.76;100330.32;25126;1315;3055481;-69
2022/10/06 10:58:41;;;;;;;5.30;1.20;;;;;;;18.83;43.03;100326.48;25136;1315;3028428;-69
2022/10/06 11:01:36;;;;;;;4.80;1.80;;;;;;;18.87;42.67;100326.77;25093;1315;3029090;-70
2022/10/06 11:04:10;;;;;;;9.60;1.40;;;;;;;18.82;42.25;100327.33;25074;1316;3051377;-69
2022/10/06 11:06:45;;;;;;;7.20;1.60;;;;;;;18.63;42.30;100327.58;25168;1315;3026440;-66
2022/10/06 11:09:17;;;;;;;6.00;1.30;;;;;;;18.61;42.79;100319.37;25051;1315;3051613;-69
2022/10/06 11:12:04;;;;;;;7.50;1.10;;;;;;;18.74;42.77;100318.55;25081;1315;3026424;-71
2022/10/06 11:14:54;;;;;;;5.10;1.40;;;;;;;18.83;42.34;100317.97;25087;1316;3052572;-67
2022/10/06 11:17:43;;;;;;;5.00;1.10;;;;;;;19.04;42.12;100316.16;25161;1315;3054902;-70
2022/10/06 11:20:17;;;;;;;9.40;2.40;;;;;;;19.14;41.83;100313.38;25085;1315;3052852;-67
2022/10/06 11:23:05;;;;;;;4.70;1.10;;;;;;;19.14;41.75;100317.05;25086;1315;3070193;-66
2022/10/06 11:25:47;;;;;;;5.30;1.30;;;;;;;19.17;42.09;100307.95;25149;1315;3051336;-70
2022/10/06 11:28:24;;;;;;;5.80;1.20;;;;;;;19.11;42.57;100311.60;25114;1315;3052278;-68
2022/10/06 11:31:00;;;;;;;5.70;1.30;;;;;;;19.13;42.50;100313.44;25077;1316;3052639;-67
2022/10/06 11:33:48;;;;;;;8.70;1.20;;;;;;;19.08;41.86;100304.98;25112;1314;3058633;-68
2022/10/06 11:36:38;;;;;;;3.80;1.50;;;;;;;19.18;42.10;100302.17;25127;1316;3052796;-69
2022/10/06 11:39:15;;;;;;;8.40;1.30;;;;;;;19.31;41.73;100308.02;25170;1315;3053658;-74
2022/10/06 11:41:48;;;;;;;4.40;1.40;;;;;;;19.53;41.85;100303.71;25114;1315;3051437;-71
2022/10/06 11:44:31;;;;;;;4.50;1.30;;;;;;;19.69;41.50;100304.98;25111;1314;3026439;-66